Rochelle, Illinois
Current Conditions -  °F | °C
As of 6:35 PM on Saturday 22 Nov 2014 (Local Time) from KRPJ Reporting Station
Overcast Overcast  
Wind Chill: 43°   Ceiling: 4500
Heat Index: 49°   Visibility: 10mi
Dew Point: 46°   Wind: 13mph
Humidity: 92%   Direction: 200°SSW
Pressure: 29.84"   Gusts: NA
Location:  41.93°N, 89.07°W
Report Text: KRPJ 230035Z AUTO 20011KT 10SM OVC045 09/08 A2984 RMK AO2 T00920080
Loading
Personal Weather Stations






























Interactive Weather Map New forecast layout! Learn more

10-Day Weather Forecast

Advertisements
Track Severe Weather on mobile